createdAt,value
2023-01-27T00:00:06.108Z,14.50
2023-01-27T00:02:39.556Z,16.23
2023-01-27T00:05:06.553Z,17.33
2023-01-27T00:07:33.083Z,14.00
2023-01-27T00:09:59.549Z,12.70
2023-01-27T00:12:45.270Z,18.97
2023-01-27T00:15:12.699Z,13.60
2023-01-27T00:17:39.173Z,15.23
2023-01-27T00:20:05.910Z,13.57
2023-01-27T00:22:50.914Z,15.57
2023-01-27T00:25:17.474Z,13.90
2023-01-27T00:27:44.577Z,13.23
2023-01-27T00:30:11.883Z,16.00
2023-01-27T00:32:59.335Z,14.63
2023-01-27T00:35:25.805Z,10.60
2023-01-27T00:37:52.558Z,12.43
2023-01-27T00:40:19.106Z,16.30
2023-01-27T00:42:45.614Z,14.20
2023-01-27T00:45:30.825Z,12.13
2023-01-27T00:47:57.327Z,12.07
2023-01-27T00:50:24.200Z,12.67
2023-01-27T00:52:52.164Z,16.03
2023-01-27T00:55:18.712Z,17.80
2023-01-27T00:57:45.369Z,15.20
2023-01-27T01:00:12.408Z,13.93
2023-01-27T01:02:39.343Z,15.40
2023-01-27T01:05:05.900Z,14.07
2023-01-27T01:07:32.408Z,15.37
2023-01-27T01:09:58.899Z,10.07
2023-01-27T01:12:25.394Z,13.93
2023-01-27T01:14:51.870Z,12.73
2023-01-27T01:17:18.358Z,13.73
2023-01-27T01:19:45.567Z,14.00
2023-01-27T01:22:12.109Z,18.77
2023-01-27T01:24:38.587Z,19.33
2023-01-27T01:27:05.069Z,14.40
2023-01-27T01:29:31.538Z,15.53
2023-01-27T01:31:59.278Z,17.67
2023-01-27T01:34:25.774Z,16.03
2023-01-27T01:36:52.283Z,16.30
2023-01-27T01:39:18.736Z,13.17
2023-01-27T01:41:45.378Z,18.30
2023-01-27T01:44:38.284Z,15.97
2023-01-27T01:47:05.947Z,16.90
2023-01-27T01:49:38.319Z,17.87
2023-01-27T01:52:09.355Z,19.77
2023-01-27T01:54:38.897Z,14.60
2023-01-27T01:57:08.463Z,18.30
2023-01-27T01:59:37.199Z,14.10
2023-01-27T02:02:06.765Z,19.90
2023-01-27T02:04:44.614Z,14.80
2023-01-27T02:07:18.444Z,19.73
2023-01-27T02:09:44.969Z,14.37
2023-01-27T02:12:11.436Z,16.00
2023-01-27T02:14:39.317Z,12.43
2023-01-27T02:17:06.052Z,18.47
2023-01-27T02:19:45.115Z,12.83
2023-01-27T02:22:13.761Z,16.23
2023-01-27T02:24:44.120Z,15.40
2023-01-27T02:27:10.768Z,15.57
2023-01-27T02:29:37.243Z,16.63
2023-01-27T02:32:03.771Z,17.20
2023-01-27T02:34:32.791Z,19.00
2023-01-27T02:37:02.525Z,17.87
2023-01-27T02:39:34.040Z,20.77
2023-01-27T02:42:00.847Z,18.83
2023-01-27T02:44:27.285Z,15.67
2023-01-27T02:46:53.799Z,14.20
2023-01-27T02:49:20.351Z,12.83
2023-01-27T02:51:46.797Z,11.50
2023-01-27T02:54:13.753Z,8.97
2023-01-27T02:56:41.338Z,8.83
2023-01-27T02:59:08.518Z,12.47
2023-01-27T03:01:38.747Z,9.53
2023-01-27T03:04:06.100Z,10.70
2023-01-27T03:06:33.660Z,11.87
2023-01-27T03:09:00.135Z,10.83
2023-01-27T03:11:46.201Z,12.23
2023-01-27T03:14:12.801Z,12.37
2023-01-27T03:16:58.090Z,11.30
2023-01-27T03:19:26.685Z,12.13
2023-01-27T03:21:53.691Z,11.83
2023-01-27T03:24:21.108Z,13.23
2023-01-27T03:26:47.851Z,14.50
2023-01-27T03:29:34.913Z,15.10
2023-01-27T03:32:01.602Z,13.13
2023-01-27T03:34:30.008Z,13.50
2023-01-27T03:37:22.984Z,12.23
2023-01-27T03:40:09.354Z,13.73
2023-01-27T03:42:54.173Z,15.03
2023-01-27T03:45:39.562Z,11.80
2023-01-27T03:48:06.116Z,12.63
2023-01-27T03:50:52.794Z,10.73
2023-01-27T03:53:22.309Z,10.87
2023-01-27T03:55:48.910Z,11.67
2023-01-27T03:58:23.163Z,9.47
2023-01-27T04:00:51.240Z,10.77
2023-01-27T04:03:37.093Z,9.60
2023-01-27T04:06:23.123Z,10.53
2023-01-27T04:08:49.639Z,8.30
2023-01-27T04:11:34.740Z,11.10
2023-01-27T04:14:02.059Z,9.50
2023-01-27T04:16:31.292Z,10.63
2023-01-27T04:18:58.074Z,8.33
2023-01-27T04:21:25.550Z,10.13
2023-01-27T04:23:52.498Z,10.93
2023-01-27T04:26:19.614Z,9.93
2023-01-27T04:28:47.476Z,11.93
2023-01-27T04:31:14.816Z,9.90
2023-01-27T04:33:42.269Z,10.40
2023-01-27T04:36:08.887Z,14.40
2023-01-27T04:38:35.684Z,10.20
2023-01-27T04:41:02.368Z,11.20
2023-01-27T04:43:29.006Z,10.63
2023-01-27T04:45:55.548Z,11.93
2023-01-27T04:48:22.090Z,11.50
2023-01-27T04:50:48.540Z,11.80
2023-01-27T04:53:15.129Z,14.67
2023-01-27T04:55:43.525Z,12.80
2023-01-27T04:58:10.179Z,13.03
2023-01-27T05:00:36.634Z,15.30
2023-01-27T05:03:05.205Z,14.00
2023-01-27T05:05:34.591Z,20.10
2023-01-27T05:08:04.465Z,18.00
2023-01-27T05:10:31.184Z,22.97
2023-01-27T05:12:57.802Z,15.67
2023-01-27T05:15:24.730Z,17.60
2023-01-27T05:17:51.479Z,18.73
2023-01-27T05:20:17.983Z,18.10
2023-01-27T05:22:44.606Z,19.33
2023-01-27T05:25:11.779Z,16.40
2023-01-27T05:27:38.706Z,17.50
2023-01-27T05:30:05.623Z,17.37
2023-01-27T05:32:32.095Z,18.43
2023-01-27T05:34:58.577Z,19.43
2023-01-27T05:37:25.095Z,21.53
2023-01-27T05:39:51.655Z,19.77
2023-01-27T05:42:18.096Z,19.97
2023-01-27T05:44:44.711Z,18.30
2023-01-27T05:47:11.146Z,20.33
2023-01-27T05:49:37.643Z,22.17
2023-01-27T05:52:04.150Z,23.43
2023-01-27T05:54:30.645Z,21.77
2023-01-27T05:56:57.092Z,21.00
2023-01-27T05:59:24.285Z,19.30
2023-01-27T06:01:50.862Z,20.83
2023-01-27T06:04:17.892Z,22.07
2023-01-27T06:06:44.387Z,22.77
2023-01-27T06:09:11.340Z,23.77
2023-01-27T06:11:37.805Z,19.77
2023-01-27T06:14:04.297Z,19.23
2023-01-27T06:16:30.928Z,26.47
2023-01-27T06:18:58.679Z,23.13
2023-01-27T06:21:25.204Z,21.87
2023-01-27T06:23:53.443Z,17.60
2023-01-27T06:26:20.124Z,18.63
2023-01-27T06:28:47.206Z,18.60
2023-01-27T06:31:14.210Z,16.63
2023-01-27T06:33:40.774Z,19.97
2023-01-27T06:36:25.965Z,17.00
2023-01-27T06:38:52.502Z,19.63
2023-01-27T06:41:19.613Z,19.63
2023-01-27T06:43:46.239Z,19.20
2023-01-27T06:46:12.819Z,15.20
2023-01-27T06:48:40.851Z,16.70
2023-01-27T06:51:08.359Z,18.87
2023-01-27T06:53:38.207Z,17.13
2023-01-27T06:56:05.922Z,16.80
2023-01-27T06:58:33.216Z,17.07
2023-01-27T07:01:01.092Z,14.60
2023-01-27T07:03:27.736Z,14.67
2023-01-27T07:05:55.553Z,16.53
2023-01-27T07:08:22.137Z,15.80
2023-01-27T07:10:48.865Z,16.03
2023-01-27T07:13:16.032Z,15.00
2023-01-27T07:15:42.702Z,19.67
2023-01-27T07:18:10.215Z,17.33
2023-01-27T07:20:40.173Z,18.00
2023-01-27T07:23:09.448Z,18.57
2023-01-27T07:25:39.999Z,17.40
2023-01-27T07:28:06.589Z,16.07
2023-01-27T07:30:38.100Z,17.70
2023-01-27T07:33:05.872Z,15.37
2023-01-27T07:35:33.828Z,16.50
2023-01-27T07:38:00.838Z,16.17
2023-01-27T07:40:27.611Z,17.47
2023-01-27T07:42:58.776Z,16.87
2023-01-27T07:45:27.204Z,17.30
2023-01-27T07:48:00.009Z,16.93
2023-01-27T07:50:27.051Z,16.80
2023-01-27T07:52:54.279Z,15.47
2023-01-27T07:55:22.126Z,14.97
2023-01-27T07:57:52.096Z,14.77
2023-01-27T08:00:21.757Z,17.63
2023-01-27T08:02:52.936Z,17.57
2023-01-27T08:05:20.777Z,15.57
2023-01-27T08:07:49.759Z,14.17
2023-01-27T08:10:19.147Z,15.10
2023-01-27T08:12:50.829Z,15.13
2023-01-27T08:15:19.173Z,14.30
2023-01-27T08:17:56.991Z,14.27
2023-01-27T08:20:24.501Z,13.37
2023-01-27T08:22:55.757Z,14.10
2023-01-27T08:25:22.516Z,13.80
2023-01-27T08:27:51.048Z,12.43
2023-01-27T08:30:18.751Z,13.10
2023-01-27T08:32:48.220Z,13.07
2023-01-27T08:35:15.160Z,11.40
2023-01-27T08:37:41.782Z,10.90
2023-01-27T08:40:08.793Z,10.93
2023-01-27T08:42:36.517Z,10.63
2023-01-27T08:45:04.293Z,10.90
2023-01-27T08:47:31.163Z,11.83
2023-01-27T08:49:58.764Z,11.87
2023-01-27T08:52:27.805Z,10.60
2023-01-27T08:54:54.558Z,11.10
2023-01-27T08:57:25.263Z,11.47
2023-01-27T08:59:53.851Z,12.10
2023-01-27T09:02:22.496Z,13.47
2023-01-27T09:04:51.572Z,13.10
2023-01-27T09:07:18.632Z,11.67
2023-01-27T09:09:51.304Z,13.50
2023-01-27T09:12:22.882Z,11.70
2023-01-27T09:14:52.723Z,12.67
2023-01-27T09:17:22.496Z,12.47
2023-01-27T09:19:50.449Z,11.53
2023-01-27T09:22:20.787Z,11.77
2023-01-27T09:24:51.347Z,11.27
2023-01-27T09:27:33.286Z,12.40
2023-01-27T09:30:08.417Z,11.60
2023-01-27T09:32:35.177Z,11.50
2023-01-27T09:35:04.739Z,10.30
2023-01-27T09:37:39.771Z,11.87
2023-01-27T09:40:14.178Z,11.53
2023-01-27T09:42:41.869Z,10.60
2023-01-27T09:45:24.892Z,10.83
2023-01-27T09:47:58.861Z,10.47
2023-01-27T09:50:38.306Z,11.60
2023-01-27T09:53:05.225Z,10.60
2023-01-27T09:55:34.931Z,10.63
2023-01-27T09:58:06.073Z,9.93
2023-01-27T10:00:47.931Z,11.57
2023-01-27T10:03:27.461Z,12.57
2023-01-27T10:05:54.766Z,12.03
2023-01-27T10:08:21.866Z,11.43
2023-01-27T10:10:57.802Z,12.07
2023-01-27T10:13:42.892Z,12.17
2023-01-27T10:16:20.811Z,12.67
2023-01-27T10:19:05.269Z,11.90
2023-01-27T10:21:34.580Z,12.80
2023-01-27T10:24:04.140Z,12.50
2023-01-27T10:26:35.841Z,11.10
2023-01-27T10:29:08.850Z,10.80
2023-01-27T10:31:37.435Z,10.17
2023-01-27T10:34:13.707Z,10.33
2023-01-27T10:36:51.026Z,9.47
2023-01-27T10:39:36.272Z,9.57
2023-01-27T10:42:10.069Z,8.30
2023-01-27T10:45:09.291Z,8.80
2023-01-27T10:47:56.951Z,9.23
2023-01-27T10:50:33.982Z,9.03
2023-01-27T10:53:06.416Z,9.03
2023-01-27T10:55:40.576Z,8.30
2023-01-27T10:58:37.228Z,9.17
2023-01-27T11:01:20.860Z,11.17
2023-01-27T11:03:59.369Z,9.67
2023-01-27T11:06:35.211Z,9.20
2023-01-27T11:09:08.646Z,9.70
2023-01-27T11:11:46.905Z,8.43
2023-01-27T11:14:28.407Z,8.30
2023-01-27T11:17:01.785Z,8.97
2023-01-27T11:19:35.932Z,9.93
2023-01-27T11:22:08.266Z,8.67
2023-01-27T11:24:44.731Z,10.57
2023-01-27T11:27:16.056Z,8.87
2023-01-27T11:29:48.378Z,9.63
2023-01-27T11:32:27.364Z,9.67
2023-01-27T11:35:25.240Z,9.73
2023-01-27T11:37:58.255Z,10.73
2023-01-27T11:40:38.611Z,10.53
2023-01-27T11:43:11.744Z,9.97
2023-01-27T11:45:39.195Z,11.10
2023-01-27T11:48:11.680Z,10.20
2023-01-27T11:50:38.345Z,12.37
2023-01-27T11:53:11.940Z,10.97
2023-01-27T11:55:43.622Z,10.53
2023-01-27T11:58:24.913Z,10.23
2023-01-27T12:00:58.008Z,12.73
2023-01-27T12:03:42.944Z,8.90
2023-01-27T12:06:15.531Z,11.33
2023-01-27T12:08:44.786Z,9.33
2023-01-27T12:11:25.072Z,10.27
2023-01-27T12:13:56.700Z,9.87
2023-01-27T12:16:25.935Z,10.90
2023-01-27T12:18:58.704Z,9.97
2023-01-27T12:21:37.249Z,13.00
2023-01-27T12:24:05.366Z,12.30
2023-01-27T12:26:37.383Z,10.33
2023-01-27T12:29:20.967Z,11.03
2023-01-27T12:31:49.133Z,10.33
2023-01-27T12:34:21.455Z,10.23
2023-01-27T12:36:50.752Z,11.90
2023-01-27T12:39:26.509Z,10.37
2023-01-27T12:41:53.090Z,11.00
2023-01-27T12:44:22.428Z,11.70
2023-01-27T12:46:58.610Z,10.63
2023-01-27T12:49:32.212Z,9.43
2023-01-27T12:52:01.494Z,10.63
2023-01-27T12:54:29.366Z,11.00
2023-01-27T12:57:01.064Z,11.20
2023-01-27T12:59:27.869Z,11.60
2023-01-27T13:02:16.727Z,11.50
2023-01-27T13:04:43.977Z,12.10
2023-01-27T13:07:15.454Z,11.43
2023-01-27T13:09:54.200Z,12.17
2023-01-27T13:12:25.306Z,11.53
2023-01-27T13:14:54.112Z,11.17
2023-01-27T13:17:26.912Z,12.37
2023-01-27T13:19:55.112Z,11.73
2023-01-27T13:22:25.322Z,10.93
2023-01-27T13:24:54.709Z,10.10
2023-01-27T13:27:22.038Z,10.07
2023-01-27T13:30:14.817Z,10.07
2023-01-27T13:32:44.025Z,11.20
2023-01-27T13:35:17.873Z,9.17
2023-01-27T13:38:10.995Z,9.10
2023-01-27T13:40:41.639Z,11.43
2023-01-27T13:43:13.272Z,8.57
2023-01-27T13:45:43.151Z,7.60
2023-01-27T13:48:22.732Z,6.77
2023-01-27T13:50:52.081Z,7.00
2023-01-27T13:53:19.160Z,7.43
2023-01-27T13:56:04.128Z,7.80
2023-01-27T13:58:33.680Z,7.00
2023-01-27T14:01:08.742Z,7.47
2023-01-27T14:03:54.986Z,6.27
2023-01-27T14:06:42.506Z,4.83
2023-01-27T14:09:18.133Z,5.23
2023-01-27T14:11:52.483Z,5.70
2023-01-27T14:14:22.367Z,4.30
2023-01-27T14:17:26.446Z,4.67
2023-01-27T14:19:52.972Z,5.83
2023-01-27T14:22:19.548Z,5.50
2023-01-27T14:24:49.393Z,5.50
2023-01-27T14:27:20.394Z,4.83
2023-01-27T14:30:09.729Z,4.87
2023-01-27T14:32:51.345Z,4.80
2023-01-27T14:35:17.898Z,4.90
2023-01-27T14:37:52.537Z,5.43
2023-01-27T14:40:24.639Z,4.93
2023-01-27T14:43:04.245Z,4.67
2023-01-27T14:45:56.345Z,5.40
2023-01-27T14:48:44.299Z,5.60
2023-01-27T14:51:23.657Z,5.77
2023-01-27T14:53:58.257Z,5.87
2023-01-27T14:56:38.223Z,6.37
2023-01-27T14:59:28.037Z,6.50
2023-01-27T15:02:12.828Z,6.87
2023-01-27T15:04:44.232Z,7.33
2023-01-27T15:07:16.228Z,7.50
2023-01-27T15:10:06.246Z,7.00
2023-01-27T15:12:52.136Z,7.10
2023-01-27T15:15:27.528Z,6.63
2023-01-27T15:18:16.002Z,6.77
2023-01-27T15:21:00.836Z,5.50
2023-01-27T15:23:48.116Z,5.33
2023-01-27T15:26:17.211Z,5.27
2023-01-27T15:28:43.938Z,5.37
2023-01-27T15:31:16.999Z,6.27
2023-01-27T15:33:47.167Z,6.03
2023-01-27T15:36:33.896Z,6.47
2023-01-27T15:39:11.096Z,5.60
2023-01-27T15:41:57.902Z,5.70
2023-01-27T15:44:24.406Z,6.03
2023-01-27T15:46:52.323Z,6.40
2023-01-27T15:49:35.142Z,6.87
2023-01-27T15:52:26.508Z,6.27
2023-01-27T15:54:55.368Z,6.17
2023-01-27T15:57:28.485Z,6.77
2023-01-27T16:00:02.046Z,7.10
2023-01-27T16:02:45.067Z,6.63
2023-01-27T16:05:26.314Z,5.57
2023-01-27T16:07:54.523Z,6.60
2023-01-27T16:10:24.420Z,6.27
2023-01-27T16:13:14.454Z,8.13
2023-01-27T16:15:43.889Z,7.43
2023-01-27T16:18:10.522Z,8.67
2023-01-27T16:20:58.162Z,7.60
2023-01-27T16:23:35.819Z,6.00
2023-01-27T16:26:06.968Z,5.50
2023-01-27T16:28:38.770Z,5.97
2023-01-27T16:31:14.434Z,6.17
2023-01-27T16:33:45.118Z,5.40
2023-01-27T16:36:23.912Z,6.27
2023-01-27T16:38:50.885Z,5.83
2023-01-27T16:41:36.282Z,6.07
2023-01-27T16:44:07.602Z,6.57
2023-01-27T16:46:39.783Z,6.17
2023-01-27T16:49:15.761Z,7.50
2023-01-27T16:51:45.821Z,6.33
2023-01-27T16:54:43.739Z,6.60
2023-01-27T16:57:29.996Z,7.73
2023-01-27T16:59:59.159Z,7.87
2023-01-27T17:02:30.221Z,7.87
2023-01-27T17:04:59.250Z,7.90
2023-01-27T17:07:26.162Z,8.10
2023-01-27T17:10:02.180Z,7.63
2023-01-27T17:12:36.577Z,7.23
2023-01-27T17:15:28.980Z,8.10
2023-01-27T17:17:57.052Z,6.43
2023-01-27T17:20:26.633Z,7.47
2023-01-27T17:22:55.737Z,7.53
2023-01-27T17:25:28.691Z,8.27
2023-01-27T17:27:59.666Z,8.20
2023-01-27T17:30:28.327Z,7.80
2023-01-27T17:32:57.353Z,8.57
2023-01-27T17:35:28.434Z,7.43
2023-01-27T17:38:14.627Z,7.10
2023-01-27T17:40:42.603Z,7.83
2023-01-27T17:43:25.976Z,7.80
2023-01-27T17:46:06.508Z,7.33
2023-01-27T17:48:33.857Z,7.53
2023-01-27T17:51:00.378Z,8.43
2023-01-27T17:53:28.411Z,6.90
2023-01-27T17:55:55.715Z,7.20
2023-01-27T17:58:26.522Z,7.10
2023-01-27T18:00:54.808Z,6.90
2023-01-27T18:03:37.379Z,6.03
2023-01-27T18:06:05.614Z,6.63
2023-01-27T18:08:35.751Z,6.17
2023-01-27T18:11:12.044Z,6.37
2023-01-27T18:13:40.263Z,6.67
2023-01-27T18:16:23.995Z,7.13
2023-01-27T18:18:50.702Z,6.67
2023-01-27T18:21:27.191Z,6.83
2023-01-27T18:23:55.769Z,6.77
2023-01-27T18:26:33.188Z,7.43
2023-01-27T18:29:01.599Z,7.67
2023-01-27T18:31:31.024Z,7.93
2023-01-27T18:34:02.291Z,8.40
2023-01-27T18:36:33.285Z,8.57
2023-01-27T18:38:59.962Z,8.47
2023-01-27T18:41:29.020Z,8.33
2023-01-27T18:43:56.294Z,9.63
2023-01-27T18:46:23.042Z,9.47
2023-01-27T18:48:49.771Z,9.03
2023-01-27T18:51:17.022Z,8.77
2023-01-27T18:53:43.610Z,9.50
2023-01-27T18:56:10.128Z,8.50
2023-01-27T18:58:37.016Z,8.97
2023-01-27T19:01:05.584Z,9.23
2023-01-27T19:03:34.622Z,9.27
2023-01-27T19:06:01.681Z,9.10
2023-01-27T19:08:28.257Z,9.80
2023-01-27T19:10:54.880Z,9.23
2023-01-27T19:13:21.403Z,9.37
2023-01-27T19:15:50.013Z,10.30
2023-01-27T19:18:24.901Z,10.50
2023-01-27T19:20:51.868Z,10.30
2023-01-27T19:23:19.498Z,10.57
2023-01-27T19:25:47.322Z,10.47
2023-01-27T19:28:17.160Z,11.27
2023-01-27T19:30:43.731Z,10.70
2023-01-27T19:33:17.203Z,9.80
2023-01-27T19:35:45.129Z,9.60
2023-01-27T19:38:12.247Z,9.70
2023-01-27T19:40:39.401Z,10.13
2023-01-27T19:43:05.893Z,9.23
2023-01-27T19:45:32.591Z,9.00
2023-01-27T19:47:59.547Z,9.40
2023-01-27T19:50:27.285Z,9.73
2023-01-27T19:52:53.865Z,10.00
2023-01-27T19:55:20.897Z,9.70
2023-01-27T19:57:48.257Z,9.53
2023-01-27T20:00:14.761Z,10.20
2023-01-27T20:02:41.976Z,9.63
2023-01-27T20:05:08.550Z,9.27
2023-01-27T20:07:35.026Z,9.13
2023-01-27T20:10:01.494Z,10.67
2023-01-27T20:12:27.984Z,9.33
2023-01-27T20:14:54.395Z,9.97
2023-01-27T20:17:21.488Z,9.20
2023-01-27T20:19:49.754Z,9.20
2023-01-27T20:22:16.203Z,8.43
2023-01-27T20:24:42.651Z,9.37
2023-01-27T20:27:09.836Z,7.63
2023-01-27T20:29:37.378Z,8.07
2023-01-27T20:32:05.616Z,9.00
2023-01-27T20:34:32.115Z,8.23
2023-01-27T20:36:58.695Z,8.87
2023-01-27T20:39:25.233Z,8.43
2023-01-27T20:41:51.720Z,9.00
2023-01-27T20:44:18.247Z,8.10
2023-01-27T20:46:44.734Z,9.83
2023-01-27T20:49:11.332Z,8.67
2023-01-27T20:51:37.814Z,7.27
2023-01-27T20:54:05.683Z,7.63
2023-01-27T20:56:32.283Z,7.03
2023-01-27T20:58:58.837Z,7.33
2023-01-27T21:01:25.436Z,6.70
2023-01-27T21:03:51.991Z,6.33
2023-01-27T21:06:21.867Z,7.57
2023-01-27T21:08:49.197Z,6.27
2023-01-27T21:11:18.228Z,6.77
2023-01-27T21:13:44.728Z,5.83
2023-01-27T21:16:11.739Z,6.17
2023-01-27T21:18:38.417Z,6.43
2023-01-27T21:21:05.169Z,6.20
2023-01-27T21:23:32.994Z,5.83
2023-01-27T21:26:09.499Z,6.53
2023-01-27T21:28:36.161Z,5.40
2023-01-27T21:31:09.885Z,5.77
2023-01-27T21:33:37.910Z,5.77
2023-01-27T21:36:05.109Z,5.50
2023-01-27T21:38:32.212Z,6.20
2023-01-27T21:41:09.889Z,5.60
2023-01-27T21:43:55.295Z,5.80
2023-01-27T21:46:21.815Z,6.23
2023-01-27T21:48:48.286Z,6.70
2023-01-27T21:51:14.773Z,6.43
2023-01-27T21:53:41.571Z,6.03
2023-01-27T21:56:09.028Z,6.60
2023-01-27T21:58:35.616Z,6.67
2023-01-27T22:01:09.318Z,7.53
2023-01-27T22:03:39.458Z,6.67
2023-01-27T22:06:06.878Z,6.40
2023-01-27T22:08:33.549Z,6.97
2023-01-27T22:11:07.470Z,6.63
2023-01-27T22:13:34.699Z,7.20
2023-01-27T22:16:01.949Z,8.70
2023-01-27T22:18:28.895Z,7.53
2023-01-27T22:20:55.351Z,8.57
2023-01-27T22:23:23.741Z,7.20
2023-01-27T22:25:51.219Z,7.87
2023-01-27T22:28:18.281Z,8.47
2023-01-27T22:30:44.950Z,7.97
2023-01-27T22:33:11.930Z,8.17
2023-01-27T22:35:39.373Z,6.77
2023-01-27T22:38:06.148Z,6.37
2023-01-27T22:40:32.757Z,7.03
2023-01-27T22:42:59.240Z,6.63
2023-01-27T22:45:25.933Z,7.37
2023-01-27T22:47:52.464Z,6.47
2023-01-27T22:50:19.058Z,6.60
2023-01-27T22:52:45.872Z,7.60
2023-01-27T22:55:13.154Z,8.37
2023-01-27T22:57:39.918Z,8.47
2023-01-27T23:00:06.940Z,8.80
2023-01-27T23:02:33.504Z,7.80
2023-01-27T23:05:00.212Z,6.90
2023-01-27T23:07:26.752Z,7.93
2023-01-27T23:09:53.231Z,7.00
2023-01-27T23:12:19.755Z,7.70
2023-01-27T23:14:46.183Z,7.30
2023-01-27T23:17:12.641Z,7.30
2023-01-27T23:19:39.104Z,6.80
2023-01-27T23:22:05.675Z,7.13
2023-01-27T23:24:32.801Z,6.63
2023-01-27T23:26:59.363Z,5.70
2023-01-27T23:29:27.279Z,6.00
2023-01-27T23:31:55.737Z,5.50
2023-01-27T23:34:22.301Z,6.30
2023-01-27T23:36:49.023Z,6.30
2023-01-27T23:39:16.319Z,5.03
2023-01-27T23:41:42.927Z,5.60
2023-01-27T23:44:10.552Z,5.73
2023-01-27T23:46:37.078Z,5.47
2023-01-27T23:49:03.814Z,5.33
2023-01-27T23:51:30.306Z,5.33
2023-01-27T23:53:56.794Z,5.50
2023-01-27T23:56:23.299Z,5.47
2023-01-27T23:58:49.809Z,5.23
